Time;durP1;ratioP1;P1;durP2;ratioP2;P2;SDS_P1;SDS_P2;PMS_P1;PMS_P2;Temp;Humidity;BMP_temperature;BMP_pressure;BME280_temperature;BME280_humidity;BME280_pressure;Samples;Min_cycle;Max_cycle;Signal;HPM_P1;HPM_P2
2022/11/25 00:00:09;;;;;;;6.87;6.17;;;6.60;99.90;;;;;;4972898;28;20210;-65
2022/11/25 00:02:35;;;;;;;6.63;6.00;;;6.60;99.90;;;;;;4973332;28;20558;-66
2022/11/25 00:05:00;;;;;;;12.50;6.73;;;6.60;99.90;;;;;;4973239;28;20185;-66
2022/11/25 00:07:26;;;;;;;6.27;5.43;;;6.50;99.90;;;;;;4972052;28;20545;-66
2022/11/25 00:09:52;;;;;;;9.47;6.23;;;6.50;99.90;;;;;;4971543;28;20193;-67
2022/11/25 00:12:17;;;;;;;7.70;7.00;;;6.50;99.90;;;;;;4971408;28;20213;-66
2022/11/25 00:14:43;;;;;;;6.73;6.10;;;6.40;99.90;;;;;;4971448;28;20659;-66
2022/11/25 00:17:08;;;;;;;8.73;6.00;;;6.40;99.90;;;;;;4973168;28;20178;-68
2022/11/25 00:19:34;;;;;;;11.10;6.20;;;6.40;99.90;;;;;;4967707;28;20217;-68
2022/11/25 00:21:59;;;;;;;6.10;5.60;;;6.40;99.90;;;;;;4953628;28;20218;-66
2022/11/25 00:24:25;;;;;;;6.00;5.70;;;6.30;99.90;;;;;;4956308;28;20220;-67
2022/11/25 00:26:51;;;;;;;10.77;6.73;;;6.30;99.90;;;;;;4971723;28;20690;-66
2022/11/25 00:29:16;;;;;;;6.73;6.23;;;6.30;99.90;;;;;;4971382;28;20188;-67
2022/11/25 00:31:42;;;;;;;7.47;6.60;;;6.20;99.90;;;;;;4971506;28;20268;-68
2022/11/25 00:34:12;;;;;;;6.93;6.43;;;6.20;99.90;;;;;;4972905;28;20257;-67
2022/11/25 00:36:38;;;;;;;10.43;6.47;;;6.20;99.90;;;;;;4953439;28;20213;-67
2022/11/25 00:39:15;;;;;;;8.93;5.83;;;6.20;99.90;;;;;;4953744;28;20257;-68
2022/11/25 00:44:35;;;;;;;6.97;6.27;;;6.20;99.90;;;;;;4954551;28;20189;-67
2022/11/25 00:47:04;;;;;;;15.87;6.57;;;6.20;99.90;;;;;;4972842;28;20212;-67
2022/11/25 00:49:30;;;;;;;14.77;6.60;;;6.20;99.90;;;;;;4970926;28;20264;-67
2022/11/25 00:51:55;;;;;;;19.23;6.80;;;6.20;99.90;;;;;;4972616;28;20300;-67
2022/11/25 00:54:21;;;;;;;8.13;7.33;;;6.30;99.90;;;;;;4971313;28;20690;-66
2022/11/25 00:56:47;;;;;;;6.40;5.93;;;6.30;99.90;;;;;;4972494;28;20754;-68
2022/11/25 00:59:12;;;;;;;8.37;7.53;;;6.40;99.90;;;;;;4972560;28;20267;-67
2022/11/25 01:01:38;;;;;;;7.63;6.60;;;6.40;99.90;;;;;;4972357;28;20209;-66
2022/11/25 01:04:05;;;;;;;8.70;6.10;;;6.40;99.90;;;;;;4971431;28;20264;-66
2022/11/25 01:06:30;;;;;;;7.07;6.47;;;6.40;99.90;;;;;;4972331;28;20204;-67
2022/11/25 01:08:56;;;;;;;6.43;5.70;;;6.40;99.90;;;;;;4972728;28;20325;-68
2022/11/25 01:11:23;;;;;;;6.60;5.50;;;6.50;99.90;;;;;;4972010;28;20659;-66
2022/11/25 01:13:49;;;;;;;6.17;5.67;;;6.50;99.90;;;;;;4972619;28;20174;-67
2022/11/25 01:16:18;;;;;;;7.07;6.27;;;6.50;99.90;;;;;;4972195;28;20666;-67
2022/11/25 01:18:44;;;;;;;6.13;5.77;;;6.50;99.90;;;;;;4972658;28;20176;-67
2022/11/25 01:21:16;;;;;;;8.33;6.23;;;6.60;99.90;;;;;;4972186;28;20693;-68
2022/11/25 01:23:42;;;;;;;7.57;6.83;;;6.70;99.90;;;;;;5012706;23;20232;-65
2022/11/25 01:26:11;;;;;;;6.73;6.07;;;6.70;99.90;;;;;;4991389;28;20231;-65
2022/11/25 01:28:37;;;;;;;6.73;6.13;;;6.80;99.90;;;;;;4995542;28;20642;-65
2022/11/25 01:31:16;;;;;;;14.10;7.07;;;6.80;99.90;;;;;;4986384;28;20376;-66
2022/11/25 01:33:42;;;;;;;14.70;7.20;;;6.90;99.90;;;;;;4993749;28;20201;-65
2022/11/25 01:36:13;;;;;;;7.20;6.53;;;6.90;99.90;;;;;;5002988;28;20645;-66
2022/11/25 01:38:39;;;;;;;17.27;6.30;;;7.00;99.90;;;;;;5015158;28;20645;-66
2022/11/25 01:41:06;;;;;;;5.93;5.63;;;7.10;99.90;;;;;;5006862;28;20177;-66
2022/11/25 01:43:32;;;;;;;6.53;5.93;;;7.10;99.90;;;;;;4995241;28;20642;-66
2022/11/25 01:46:12;;;;;;;6.93;6.30;;;7.20;99.90;;;;;;5001156;28;20259;-66
2022/11/25 01:48:48;;;;;;;5.73;5.43;;;7.20;99.90;;;;;;5014884;28;20186;-66
2022/11/25 01:51:44;;;;;;;6.87;6.27;;;7.20;99.90;;;;;;5006418;28;20728;-66
2022/11/25 01:54:13;;;;;;;9.77;6.50;;;7.30;99.90;;;;;;4988144;28;20243;-66
2022/11/25 01:56:55;;;;;;;6.23;5.87;;;7.30;99.90;;;;;;5005418;28;20184;-67
2022/11/25 01:59:21;;;;;;;6.50;6.10;;;7.40;99.90;;;;;;5014336;28;20180;-66
2022/11/25 02:01:47;;;;;;;7.47;6.63;;;7.40;99.90;;;;;;5003142;28;20184;-66
2022/11/25 02:04:15;;;;;;;7.03;6.60;;;7.50;99.90;;;;;;4994901;28;20180;-66
2022/11/25 02:06:53;;;;;;;7.83;7.20;;;7.50;99.90;;;;;;5004381;28;20262;-67
2022/11/25 02:09:20;;;;;;;6.90;6.50;;;7.60;99.90;;;;;;5012573;28;20613;-66
2022/11/25 02:11:47;;;;;;;6.90;6.40;;;7.60;99.90;;;;;;5003984;28;20208;-67
2022/11/25 02:14:15;;;;;;;5.90;5.60;;;7.60;99.90;;;;;;4994545;28;20177;-66
2022/11/25 02:16:41;;;;;;;7.10;6.53;;;7.60;99.90;;;;;;5003360;28;20181;-66
2022/11/25 02:19:19;;;;;;;7.43;6.27;;;7.70;99.90;;;;;;5014081;28;20199;-67
2022/11/25 02:21:49;;;;;;;7.77;6.27;;;7.70;99.90;;;;;;5005163;28;20187;-66
2022/11/25 02:24:26;;;;;;;8.27;6.80;;;7.70;99.90;;;;;;4994546;28;20185;-66
2022/11/25 02:26:51;;;;;;;7.63;6.83;;;7.70;99.90;;;;;;4999570;28;20538;-66
2022/11/25 02:29:17;;;;;;;6.53;6.13;;;7.70;99.90;;;;;;5000974;28;20180;-66
2022/11/25 02:31:43;;;;;;;7.63;6.73;;;7.80;99.90;;;;;;4994345;28;20211;-67
2022/11/25 02:34:09;;;;;;;8.07;7.07;;;7.80;99.90;;;;;;4993039;28;20180;-66
2022/11/25 02:36:35;;;;;;;6.33;5.73;;;7.80;99.90;;;;;;4998377;28;20653;-66
2022/11/25 02:39:01;;;;;;;7.47;6.63;;;7.80;99.90;;;;;;5013519;28;20187;-66
2022/11/25 02:41:32;;;;;;;9.10;6.17;;;7.80;99.90;;;;;;5009721;28;20224;-66
2022/11/25 02:43:58;;;;;;;6.10;5.70;;;7.80;99.90;;;;;;4994235;28;20231;-66
2022/11/25 02:46:26;;;;;;;6.10;5.50;;;7.90;99.90;;;;;;4996044;28;20199;-66
2022/11/25 02:48:53;;;;;;;8.07;6.43;;;7.90;99.90;;;;;;5013694;28;20238;-67
2022/11/25 02:51:23;;;;;;;7.57;6.30;;;7.90;99.90;;;;;;5011542;28;20204;-66
2022/11/25 02:53:49;;;;;;;9.70;7.10;;;7.90;99.90;;;;;;4994369;28;20556;-67
2022/11/25 02:56:18;;;;;;;7.63;6.40;;;7.90;99.90;;;;;;4993601;28;20220;-66
2022/11/25 02:58:44;;;;;;;10.17;6.43;;;7.90;99.90;;;;;;5013530;28;20176;-67
2022/11/25 03:01:09;;;;;;;7.97;7.03;;;8.00;99.90;;;;;;5013183;28;20198;-66
2022/11/25 03:03:36;;;;;;;14.60;6.70;;;8.00;99.90;;;;;;4994400;28;20633;-66
2022/11/25 03:06:02;;;;;;;11.57;6.30;;;8.00;99.90;;;;;;4994044;28;20559;-66
2022/11/25 03:08:27;;;;;;;9.70;6.73;;;8.00;99.90;;;;;;5010893;28;20191;-67
2022/11/25 03:10:53;;;;;;;12.03;6.90;;;8.00;99.90;;;;;;5013056;28;20203;-66
2022/11/25 03:13:19;;;;;;;11.67;6.57;;;8.10;99.90;;;;;;4997476;28;20232;-66
2022/11/25 03:15:45;;;;;;;5.57;5.17;;;8.10;99.90;;;;;;4993671;28;20172;-67
2022/11/25 03:18:10;;;;;;;7.17;6.43;;;8.10;99.90;;;;;;5006911;28;20181;-67
2022/11/25 03:20:36;;;;;;;8.13;6.33;;;8.10;99.90;;;;;;5012693;28;20169;-66
2022/11/25 03:23:03;;;;;;;7.23;5.57;;;8.10;99.90;;;;;;5000800;28;20295;-66
2022/11/25 03:25:29;;;;;;;7.83;6.47;;;8.10;99.90;;;;;;4993362;28;20173;-66
2022/11/25 03:27:55;;;;;;;7.90;5.90;;;8.10;99.90;;;;;;5003680;28;20540;-66
2022/11/25 03:30:23;;;;;;;6.27;5.67;;;8.20;99.90;;;;;;5012475;28;20176;-66
2022/11/25 03:32:49;;;;;;;6.60;5.90;;;8.10;99.90;;;;;;5003522;28;20236;-66
2022/11/25 03:35:15;;;;;;;6.63;5.83;;;8.20;99.90;;;;;;4993182;28;20260;-66
2022/11/25 03:37:41;;;;;;;9.93;6.43;;;8.20;99.90;;;;;;4999847;28;20183;-65
2022/11/25 03:40:09;;;;;;;7.50;6.90;;;8.20;99.90;;;;;;5012397;28;20172;-66
2022/11/25 03:42:35;;;;;;;6.40;6.00;;;8.20;99.90;;;;;;5006032;28;20212;-66
2022/11/25 03:45:01;;;;;;;6.37;5.90;;;8.30;99.90;;;;;;4993048;28;20173;-66
2022/11/25 03:47:26;;;;;;;8.73;6.27;;;8.30;99.90;;;;;;4997044;28;20183;-67
2022/11/25 03:49:52;;;;;;;7.53;5.83;;;8.30;99.90;;;;;;5011803;28;20229;-66
2022/11/25 03:52:18;;;;;;;9.23;7.07;;;8.40;99.90;;;;;;5009157;28;20230;-67
2022/11/25 03:54:43;;;;;;;8.57;6.47;;;8.40;99.90;;;;;;4992870;28;20184;-66
2022/11/25 03:57:09;;;;;;;7.50;6.70;;;8.40;99.90;;;;;;4993822;28;20169;-65
2022/11/25 03:59:35;;;;;;;6.70;6.03;;;8.40;99.90;;;;;;5011984;28;20203;-66
2022/11/25 04:02:01;;;;;;;13.43;7.10;;;8.50;99.90;;;;;;5012487;28;20192;-65
2022/11/25 04:04:26;;;;;;;7.03;6.53;;;8.40;99.90;;;;;;4992823;28;20183;-65
2022/11/25 04:06:52;;;;;;;9.10;6.83;;;8.40;99.90;;;;;;4992688;28;20584;-66
2022/11/25 04:09:18;;;;;;;6.40;5.90;;;8.40;99.90;;;;;;5009352;28;20274;-66
2022/11/25 04:14:28;;;;;;;7.53;6.73;;;8.50;99.90;;;;;;4993557;28;20319;-66
2022/11/25 04:16:54;;;;;;;10.53;6.97;;;8.50;99.90;;;;;;4992448;28;20172;-67
2022/11/25 04:19:20;;;;;;;8.73;7.03;;;8.50;99.90;;;;;;5008090;28;20562;-66
2022/11/25 04:21:45;;;;;;;8.50;6.67;;;8.50;99.90;;;;;;5011949;28;20176;-66
2022/11/25 04:24:11;;;;;;;7.40;6.63;;;8.50;99.90;;;;;;4997049;28;20208;-66
2022/11/25 04:26:37;;;;;;;7.83;6.07;;;8.50;99.90;;;;;;4992358;28;20177;-67
2022/11/25 04:29:02;;;;;;;6.93;6.47;;;8.50;99.90;;;;;;5005274;28;20184;-67
2022/11/25 04:31:28;;;;;;;7.37;6.87;;;8.50;99.90;;;;;;5011513;28;20199;-67
2022/11/25 04:33:53;;;;;;;8.40;6.80;;;8.50;99.90;;;;;;5000255;28;20203;-67
2022/11/25 04:36:19;;;;;;;7.37;6.27;;;8.40;99.90;;;;;;4991438;28;20548;-67
2022/11/25 04:38:45;;;;;;;9.23;6.70;;;8.40;99.90;;;;;;5001714;28;20287;-68
2022/11/25 04:41:10;;;;;;;6.80;6.40;;;8.30;99.90;;;;;;5011589;28;20634;-68
2022/11/25 04:43:36;;;;;;;8.60;6.07;;;8.20;99.90;;;;;;5003406;28;20208;-67
2022/11/25 04:46:02;;;;;;;11.27;6.73;;;8.20;99.90;;;;;;4992141;28;20180;-68
2022/11/25 04:48:28;;;;;;;5.77;5.40;;;8.20;99.90;;;;;;4997856;28;20182;-67
2022/11/25 04:50:54;;;;;;;9.87;6.43;;;8.20;99.90;;;;;;5011376;28;20701;-68
2022/11/25 04:53:19;;;;;;;10.20;6.53;;;8.10;99.90;;;;;;5006932;28;20208;-67
2022/11/25 04:55:46;;;;;;;6.77;6.20;;;8.10;99.90;;;;;;4992162;28;20590;-68
2022/11/25 04:58:12;;;;;;;10.00;6.20;;;8.10;99.90;;;;;;4995065;28;20319;-68
2022/11/25 05:00:37;;;;;;;7.53;6.10;;;8.10;99.90;;;;;;5011245;28;20280;-68
2022/11/25 05:03:03;;;;;;;6.83;6.40;;;8.10;99.90;;;;;;5014665;28;20200;-68
2022/11/25 05:05:29;;;;;;;11.07;6.43;;;8.20;99.90;;;;;;5016090;28;20175;-68
2022/11/25 05:07:55;;;;;;;6.53;6.00;;;8.20;99.90;;;;;;5016045;28;20168;-68
2022/11/25 05:10:21;;;;;;;9.37;6.83;;;8.20;99.90;;;;;;5014997;28;20680;-68
2022/11/25 05:12:46;;;;;;;8.77;6.63;;;8.20;99.90;;;;;;5015581;28;20215;-68
2022/11/25 05:15:12;;;;;;;13.97;6.80;;;8.20;99.90;;;;;;5014934;28;20207;-68
2022/11/25 05:17:38;;;;;;;7.07;6.33;;;8.20;99.90;;;;;;5015713;28;20176;-68
2022/11/25 05:20:05;;;;;;;7.00;6.30;;;8.20;99.90;;;;;;4999098;28;20185;-69
2022/11/25 05:22:32;;;;;;;6.57;5.97;;;8.20;99.90;;;;;;5000054;28;20220;-69
2022/11/25 05:24:58;;;;;;;9.63;7.07;;;8.20;99.90;;;;;;5014172;28;20680;-69
2022/11/25 05:27:25;;;;;;;6.90;6.30;;;8.20;99.90;;;;;;5014963;28;20196;-68
2022/11/25 05:29:50;;;;;;;11.17;6.90;;;8.20;99.90;;;;;;5015013;28;20172;-68
2022/11/25 05:32:16;;;;;;;11.30;6.87;;;8.30;99.90;;;;;;5013068;28;20214;-69
2022/11/25 05:34:42;;;;;;;7.97;6.57;;;8.20;99.90;;;;;;4995569;28;20161;-69
2022/11/25 05:37:09;;;;;;;7.10;6.23;;;8.20;99.90;;;;;;4994943;28;20638;-69
2022/11/25 05:39:35;;;;;;;7.83;6.57;;;8.20;99.90;;;;;;4995094;28;20219;-68
2022/11/25 05:42:01;;;;;;;10.60;6.00;;;8.20;99.90;;;;;;4995432;28;20575;-68
2022/11/25 05:44:26;;;;;;;11.50;6.17;;;8.20;99.90;;;;;;4995448;28;20215;-69
2022/11/25 05:46:52;;;;;;;15.87;5.87;;;8.30;99.90;;;;;;4995444;28;20172;-68
2022/11/25 05:49:19;;;;;;;6.97;6.23;;;8.30;99.90;;;;;;5011337;28;20585;-68
2022/11/25 05:51:45;;;;;;;6.13;5.83;;;8.20;99.90;;;;;;5014607;28;20196;-68
2022/11/25 05:54:11;;;;;;;6.80;6.27;;;8.20;99.90;;;;;;4999571;28;20177;-68
2022/11/25 05:56:37;;;;;;;9.90;6.20;;;8.20;99.90;;;;;;4994896;28;20620;-68
2022/11/25 05:59:04;;;;;;;11.33;6.43;;;8.20;99.90;;;;;;5008445;28;20180;-68
2022/11/25 06:01:30;;;;;;;9.47;6.50;;;8.20;99.90;;;;;;5014402;28;20204;-68
2022/11/25 06:03:59;;;;;;;8.50;7.63;;;8.20;99.90;;;;;;5002483;28;20240;-68
2022/11/25 06:06:25;;;;;;;6.67;6.17;;;8.20;99.90;;;;;;4994624;28;20304;-68
2022/11/25 06:08:51;;;;;;;6.80;6.30;;;8.20;99.90;;;;;;5005634;28;20663;-68
2022/11/25 06:11:17;;;;;;;7.73;6.90;;;8.20;99.90;;;;;;5014125;28;20199;-68
2022/11/25 06:13:43;;;;;;;7.17;6.47;;;8.20;99.90;;;;;;5004771;28;20197;-68
2022/11/25 06:16:20;;;;;;;7.40;6.27;;;8.20;99.90;;;;;;4997179;28;20224;-68
2022/11/25 06:18:46;;;;;;;6.80;6.03;;;8.30;99.90;;;;;;5005605;28;20172;-68
2022/11/25 06:21:12;;;;;;;7.27;6.67;;;8.30;99.90;;;;;;5015639;28;20180;-68
2022/11/25 06:23:38;;;;;;;12.93;6.60;;;8.30;99.90;;;;;;5008741;28;20236;-67
2022/11/25 06:26:11;;;;;;;7.20;6.60;;;8.20;99.90;;;;;;4995652;28;20247;-68
2022/11/25 06:28:37;;;;;;;8.27;6.07;;;8.30;99.90;;;;;;4999477;28;20192;-68
2022/11/25 06:31:11;;;;;;;6.67;6.07;;;8.30;99.90;;;;;;5005464;28;20208;-68
2022/11/25 06:33:36;;;;;;;7.83;7.17;;;8.30;99.90;;;;;;4996370;28;20617;-67
2022/11/25 06:36:07;;;;;;;7.07;6.57;;;8.30;99.90;;;;;;4995010;28;20265;-68
2022/11/25 06:38:33;;;;;;;6.70;6.17;;;8.30;99.90;;;;;;5000579;28;20634;-68
2022/11/25 06:41:01;;;;;;;6.67;6.13;;;8.20;99.90;;;;;;5016466;28;20192;-68
2022/11/25 06:43:27;;;;;;;20.27;9.10;;;8.20;99.90;;;;;;5013022;28;20224;-68
2022/11/25 06:45:52;;;;;;;12.47;8.27;;;8.20;99.90;;;;;;4995553;28;20212;-68
2022/11/25 06:48:18;;;;;;;13.70;8.40;;;8.30;99.90;;;;;;4997584;28;20177;-68
2022/11/25 06:50:43;;;;;;;9.20;8.10;;;8.30;99.90;;;;;;5015926;28;20207;-68
2022/11/25 06:53:09;;;;;;;8.03;7.33;;;8.30;99.90;;;;;;5016325;28;20557;-68
2022/11/25 06:55:34;;;;;;;16.00;7.30;;;8.30;99.90;;;;;;4996936;28;20189;-68
2022/11/25 06:58:00;;;;;;;12.50;7.17;;;8.30;99.90;;;;;;5011641;28;20172;-68
2022/11/25 07:00:25;;;;;;;13.63;7.43;;;8.30;99.90;;;;;;5013810;28;20200;-68
2022/11/25 07:02:51;;;;;;;8.40;6.17;;;8.30;99.90;;;;;;5014618;28;20708;-68
2022/11/25 07:05:16;;;;;;;6.30;5.70;;;8.20;99.90;;;;;;5001502;28;20191;-68
2022/11/25 07:07:42;;;;;;;6.27;5.80;;;8.20;99.90;;;;;;5015418;28;20306;-68
2022/11/25 07:10:08;;;;;;;7.03;6.10;;;8.10;99.90;;;;;;5011061;28;20646;-68
2022/11/25 07:12:34;;;;;;;12.67;6.60;;;8.00;99.90;;;;;;4995720;28;20251;-68
2022/11/25 07:14:59;;;;;;;5.70;5.20;;;7.90;99.90;;;;;;4996081;28;20184;-68
2022/11/25 07:17:25;;;;;;;9.23;6.50;;;7.90;99.90;;;;;;4996390;28;20196;-68
2022/11/25 07:19:50;;;;;;;7.77;6.50;;;7.80;99.90;;;;;;4996233;28;20208;-68
2022/11/25 07:24:44;;;;;;;7.70;6.87;;;6.80;99.90;;;;;;4991150;28;20626;-66
2022/11/25 07:27:09;;;;;;;7.83;6.87;;;7.60;99.90;;;;;;4993458;28;20248;-66
2022/11/25 07:29:35;;;;;;;8.03;6.80;;;7.50;99.90;;;;;;4992701;28;20492;-66
2022/11/25 07:32:01;;;;;;;7.43;6.67;;;7.50;99.90;;;;;;4993403;28;20665;-66
2022/11/25 07:34:26;;;;;;;9.50;7.80;;;7.40;99.90;;;;;;4992873;28;20213;-66
2022/11/25 07:36:52;;;;;;;7.30;6.67;;;7.40;99.90;;;;;;4992678;28;20215;-66
2022/11/25 07:39:20;;;;;;;7.30;6.70;;;7.30;99.90;;;;;;4992880;28;20173;-66
2022/11/25 07:41:49;;;;;;;9.83;9.17;;;7.20;99.90;;;;;;4993138;28;20630;-67
2022/11/25 07:44:15;;;;;;;7.40;6.77;;;7.20;99.90;;;;;;4992854;28;20193;-66
2022/11/25 07:46:42;;;;;;;8.43;7.53;;;7.10;99.90;;;;;;4992726;28;20188;-66
2022/11/25 07:49:14;;;;;;;7.67;7.10;;;7.20;99.90;;;;;;4991463;28;20172;-66
2022/11/25 07:51:43;;;;;;;11.87;7.50;;;7.20;99.90;;;;;;4991478;28;20201;-66
2022/11/25 07:54:10;;;;;;;8.63;6.83;;;7.30;99.90;;;;;;4992725;28;20203;-66
2022/11/25 07:56:38;;;;;;;7.83;6.97;;;7.30;99.90;;;;;;4991236;28;20195;-66
2022/11/25 07:59:04;;;;;;;10.10;7.70;;;7.30;99.90;;;;;;4992711;28;20651;-66
2022/11/25 08:01:30;;;;;;;8.10;7.40;;;7.40;99.90;;;;;;4991241;28;20215;-66
2022/11/25 08:03:56;;;;;;;9.10;7.07;;;7.50;99.90;;;;;;4993090;28;20720;-66
2022/11/25 08:06:27;;;;;;;12.07;7.20;;;7.50;99.90;;;;;;4992544;28;20642;-66
2022/11/25 08:08:54;;;;;;;6.77;6.27;;;7.50;99.90;;;;;;4992765;28;20200;-66
2022/11/25 08:11:25;;;;;;;11.27;7.13;;;7.60;99.90;;;;;;4991421;28;20200;-66
2022/11/25 08:13:51;;;;;;;7.87;7.20;;;7.70;99.90;;;;;;4991457;28;20197;-67
2022/11/25 08:16:19;;;;;;;6.90;6.40;;;7.80;99.90;;;;;;4992317;28;20232;-66
2022/11/25 08:18:45;;;;;;;7.97;7.17;;;7.80;99.90;;;;;;4992356;28;20177;-66
2022/11/25 08:21:12;;;;;;;8.93;8.03;;;7.80;99.90;;;;;;4990759;28;20554;-66
2022/11/25 08:23:39;;;;;;;8.70;7.80;;;7.90;99.90;;;;;;4990765;28;20217;-66
2022/11/25 08:26:07;;;;;;;9.13;7.90;;;8.00;99.90;;;;;;4991618;28;20169;-66
2022/11/25 08:28:34;;;;;;;13.67;8.57;;;8.10;99.90;;;;;;4989011;28;20188;-66
2022/11/25 08:31:05;;;;;;;15.77;8.47;;;8.40;99.90;;;;;;4990279;28;20184;-66
2022/11/25 08:33:31;;;;;;;9.20;6.50;;;8.90;99.90;;;;;;4990446;28;20548;-67
2022/11/25 08:35:57;;;;;;;10.13;6.10;;;9.40;99.90;;;;;;4992136;28;20557;-67
2022/11/25 08:38:22;;;;;;;15.07;7.27;;;9.60;99.90;;;;;;4990570;28;20181;-67
2022/11/25 08:40:48;;;;;;;7.03;5.60;;;10.00;99.90;;;;;;4991885;28;20380;-67
2022/11/25 08:43:14;;;;;;;6.00;5.57;;;10.30;99.90;;;;;;4991822;28;20669;-66
2022/11/25 08:45:43;;;;;;;6.20;5.47;;;10.70;99.90;;;;;;4992065;28;20292;-67
2022/11/25 08:48:08;;;;;;;7.37;5.50;;;11.10;99.90;;;;;;4989811;28;20192;-67
2022/11/25 08:50:34;;;;;;;10.73;5.50;;;11.60;99.90;;;;;;4990285;28;20188;-65
2022/11/25 08:53:00;;;;;;;10.10;7.03;;;12.00;99.90;;;;;;4991819;28;20212;-65
2022/11/25 08:55:26;;;;;;;8.07;5.83;;;12.30;99.90;;;;;;4991960;28;20165;-65
2022/11/25 08:57:53;;;;;;;8.37;5.73;;;12.60;99.90;;;;;;4991789;28;20643;-65
2022/11/25 09:00:19;;;;;;;8.27;6.23;;;12.90;99.90;;;;;;4990631;28;20567;-65
2022/11/25 09:02:45;;;;;;;6.03;5.53;;;13.20;99.90;;;;;;4991634;28;20208;-65
2022/11/25 09:05:13;;;;;;;5.67;4.90;;;13.40;99.90;;;;;;4992345;28;20183;-65
2022/11/25 09:07:40;;;;;;;7.07;5.20;;;13.60;99.90;;;;;;4991911;28;20331;-66
2022/11/25 09:10:09;;;;;;;5.03;4.50;;;13.80;99.90;;;;;;4991879;28;20195;-65
2022/11/25 09:12:34;;;;;;;5.10;3.87;;;13.90;99.90;;;;;;4991373;28;20627;-67
2022/11/25 09:15:00;;;;;;;5.10;3.97;;;13.80;99.90;;;;;;4992124;28;20204;-67
2022/11/25 09:17:26;;;;;;;6.10;4.10;;;13.90;99.90;;;;;;4991805;28;20185;-67
2022/11/25 09:19:52;;;;;;;4.00;3.80;;;14.10;99.90;;;;;;4991829;28;20180;-67
2022/11/25 09:22:17;;;;;;;6.20;3.60;;;14.20;71.90;;;;;;4990801;28;20201;-67
2022/11/25 09:24:44;;;;;;;4.57;3.93;;;13.80;58.40;;;;;;4989896;28;20192;-67
2022/11/25 09:27:09;;;;;;;3.67;3.37;;;13.90;97.10;;;;;;4991999;28;20715;-67
2022/11/25 09:29:35;;;;;;;4.03;3.70;;;14.20;99.90;;;;;;4990131;28;20284;-67
2022/11/25 09:32:01;;;;;;;4.03;3.67;;;14.60;58.90;;;;;;4990091;28;20209;-67
2022/11/25 09:34:26;;;;;;;4.20;3.67;;;14.80;31.50;;;;;;4990338;28;20176;-67
2022/11/25 09:36:52;;;;;;;3.83;3.53;;;15.00;6.30;;;;;;4991326;28;20178;-67
2022/11/25 09:39:18;;;;;;;3.60;3.40;;;15.00;1.00;;;;;;4991456;28;20528;-67
2022/11/25 09:48:10;;;;;;;4.87;3.80;;;15.30;1.00;;;;;;4993501;28;20195;-68
2022/11/25 09:51:17;;;;;;;4.30;3.90;;;15.40;1.00;;;;;;4992733;28;20260;-68
2022/11/25 09:53:53;;;;;;;6.60;3.73;;;15.30;1.00;;;;;;4947809;28;20591;-67
2022/11/25 09:56:25;;;;;;;4.00;3.70;;;15.10;99.90;;;;;;4979399;28;20176;-67
2022/11/25 09:58:59;;;;;;;4.70;3.93;;;14.90;99.90;;;;;;4995158;28;20183;-67
2022/11/25 10:01:27;;;;;;;3.60;3.40;;;14.70;99.90;;;;;;4994273;28;20179;-67
2022/11/25 10:04:04;;;;;;;5.07;4.23;;;14.70;1.00;;;;;;4993764;28;20663;-67
2022/11/25 10:06:37;;;;;;;10.13;4.00;;;14.50;99.90;;;;;;4994586;28;20177;-67
2022/11/25 10:09:14;;;;;;;4.23;4.03;;;14.30;99.90;;;;;;4994565;28;20196;-67
2022/11/25 10:11:52;;;;;;;4.67;4.20;;;13.90;1.00;;;;;;4994201;28;20204;-66
2022/11/25 10:14:47;;;;;;;4.43;3.97;;;13.80;1.00;;;;;;4994623;28;20234;-67
2022/11/25 10:17:27;;;;;;;4.60;4.20;;;13.70;1.00;;;;;;4994505;28;20176;-67
2022/11/25 10:20:14;;;;;;;4.40;4.10;;;13.50;1.00;;;;;;4991125;28;20176;-67
2022/11/25 10:22:42;;;;;;;4.33;3.93;;;13.50;1.00;;;;;;4990138;28;20784;-66
2022/11/25 10:25:23;;;;;;;4.77;4.30;;;13.40;1.00;;;;;;4993714;28;20296;-67
2022/11/25 10:28:22;;;;;;;6.90;4.17;;;13.30;1.00;;;;;;4993033;28;20185;-67
2022/11/25 10:31:30;;;;;;;5.10;4.63;;;13.40;1.00;;;;;;4989072;28;20272;-67
2022/11/25 10:33:58;;;;;;;9.63;4.80;;;13.70;1.00;;;;;;4987477;28;20565;-67
2022/11/25 10:36:29;;;;;;;6.77;3.97;;;13.90;1.00;;;;;;4992259;28;20177;-67
2022/11/25 10:39:03;;;;;;;11.17;4.60;;;13.90;1.00;;;;;;4992862;28;20323;-67
2022/11/25 10:41:51;;;;;;;5.73;4.00;;;14.00;1.00;;;;;;4989820;28;20191;-67
2022/11/25 10:44:34;;;;;;;4.43;4.10;;;13.90;99.90;;;;;;4990089;28;20184;-67
2022/11/25 10:47:34;;;;;;;7.00;4.93;;;13.70;1.00;;;;;;4973994;28;20185;-67
2022/11/25 10:50:41;;;;;;;8.50;4.10;;;13.70;1.00;;;;;;4978062;28;20184;-67
2022/11/25 10:53:21;;;;;;;12.43;4.40;;;13.70;1.00;;;;;;4960953;28;20245;-66
2022/11/25 10:55:57;;;;;;;4.90;4.37;;;14.00;1.00;;;;;;4993977;28;20180;-66
2022/11/25 10:58:34;;;;;;;5.77;4.00;;;14.40;99.90;;;;;;4990470;28;20192;-66
2022/11/25 11:01:20;;;;;;;7.97;4.40;;;14.50;99.90;;;;;;4992584;28;20247;-66
2022/11/25 11:03:53;;;;;;;11.70;3.80;;;14.40;99.90;;;;;;4993603;28;20676;-67
2022/11/25 11:06:44;;;;;;;8.87;4.23;;;14.60;44.40;;;;;;4993164;28;20187;-66
2022/11/25 11:09:42;;;;;;;5.97;4.33;;;14.60;1.00;;;;;;4993138;28;20192;-67
2022/11/25 11:12:27;;;;;;;8.03;4.40;;;14.50;1.00;;;;;;4970639;28;20702;-66
2022/11/25 11:15:20;;;;;;;7.50;4.57;;;14.50;99.90;;;;;;4993145;28;20267;-66
2022/11/25 11:17:47;;;;;;;11.00;4.10;;;14.10;1.00;;;;;;4974103;28;20174;-67
2022/11/25 11:20:24;;;;;;;5.67;4.00;;;13.90;1.00;;;;;;4975140;28;20177;-66
2022/11/25 11:23:07;;;;;;;5.33;3.93;;;13.70;1.00;;;;;;4991929;28;20204;-66
2022/11/25 11:25:39;;;;;;;7.37;4.27;;;13.70;32.40;;;;;;4992693;28;20196;-66
2022/11/25 11:28:27;;;;;;;4.43;4.00;;;13.70;1.00;;;;;;4992332;28;20176;-66
2022/11/25 11:30:59;;;;;;;7.27;4.30;;;13.60;1.00;;;;;;4991431;28;20169;-67
2022/11/25 11:33:29;;;;;;;8.33;4.63;;;13.50;1.00;;;;;;4991044;28;20601;-67
2022/11/25 11:36:07;;;;;;;7.70;4.50;;;13.50;1.00;;;;;;4993239;28;20184;-66
2022/11/25 11:39:12;;;;;;;7.03;3.70;;;13.60;38.10;;;;;;4993427;28;20180;-66
2022/11/25 11:41:56;;;;;;;4.03;3.73;;;13.90;1.00;;;;;;4993038;28;20195;-66
2022/11/25 11:44:46;;;;;;;8.57;4.13;;;14.10;1.00;;;;;;4992797;28;20181;-66
2022/11/25 11:47:24;;;;;;;6.40;4.70;;;14.40;1.00;;;;;;4993050;28;20251;-67
2022/11/25 11:49:52;;;;;;;11.53;5.77;;;14.30;1.00;;;;;;4992970;28;20176;-67
2022/11/25 11:52:38;;;;;;;8.00;5.67;;;14.10;1.00;;;;;;4992723;28;20237;-67
2022/11/25 11:55:22;;;;;;;7.13;5.27;;;13.90;1.00;;;;;;4972049;28;20259;-66
2022/11/25 11:58:08;;;;;;;4.63;4.00;;;13.70;1.00;;;;;;4991691;28;20717;-66
2022/11/25 12:01:03;;;;;;;10.87;5.10;;;13.70;99.90;;;;;;4992568;28;20623;-67
2022/11/25 12:03:37;;;;;;;4.80;4.40;;;14.00;99.90;;;;;;4987701;28;20713;-66
2022/11/25 12:06:05;;;;;;;4.70;4.30;;;14.30;1.00;;;;;;4975307;28;20181;-67
2022/11/25 12:08:50;;;;;;;4.93;4.43;;;14.20;1.00;;;;;;4991339;28;20316;-66
2022/11/25 12:11:23;;;;;;;5.63;4.30;;;14.20;1.00;;;;;;4990568;28;20201;-66
2022/11/25 12:14:13;;;;;;;10.60;5.03;;;14.10;1.00;;;;;;4991556;28;20197;-66
2022/11/25 12:16:51;;;;;;;5.27;4.57;;;13.80;99.90;;;;;;4981952;28;20270;-66
2022/11/25 12:19:23;;;;;;;4.30;3.90;;;13.70;1.00;;;;;;4992524;28;20192;-66
2022/11/25 12:22:02;;;;;;;10.87;4.00;;;13.50;1.00;;;;;;4990970;28;20189;-66
2022/11/25 12:24:41;;;;;;;7.73;3.90;;;13.20;1.00;;;;;;4992498;28;20200;-66
2022/11/25 12:27:28;;;;;;;6.43;5.03;;;13.10;99.90;;;;;;4987499;28;20181;-66
2022/11/25 12:30:03;;;;;;;11.30;5.40;;;13.00;99.90;;;;;;4992408;28;20172;-66
2022/11/25 12:32:29;;;;;;;8.23;4.70;;;12.90;99.90;;;;;;4992007;28;20215;-66
2022/11/25 12:35:10;;;;;;;7.27;4.40;;;12.80;99.90;;;;;;4991073;28;20185;-66
2022/11/25 12:37:44;;;;;;;13.63;4.93;;;12.90;99.90;;;;;;4990432;28;20228;-66
2022/11/25 12:40:34;;;;;;;5.00;4.60;;;12.90;99.90;;;;;;4991002;28;20293;-66
2022/11/25 12:43:20;;;;;;;5.90;4.57;;;12.80;99.90;;;;;;4989430;28;20698;-66
2022/11/25 12:45:59;;;;;;;5.10;4.20;;;12.70;99.90;;;;;;4992079;28;20177;-66
2022/11/25 12:48:25;;;;;;;5.90;4.90;;;12.50;99.90;;;;;;4991994;28;20185;-66
2022/11/25 12:51:21;;;;;;;6.53;4.80;;;12.40;99.90;;;;;;4991936;28;20260;-66
2022/11/25 12:54:18;;;;;;;8.27;5.83;;;12.10;99.90;;;;;;4990497;28;20678;-66
2022/11/25 12:57:02;;;;;;;5.07;4.33;;;11.90;99.90;;;;;;4973865;28;20211;-66
2022/11/25 12:59:55;;;;;;;4.83;4.47;;;12.00;1.00;;;;;;4990470;28;20173;-67
2022/11/25 13:02:53;;;;;;;4.50;4.20;;;11.90;1.00;;;;;;4992006;28;20278;-66
2022/11/25 13:05:27;;;;;;;6.80;4.73;;;11.80;1.00;;;;;;4991990;28;20260;-66
2022/11/25 13:08:10;;;;;;;5.90;4.23;;;11.80;28.90;;;;;;4990284;28;20180;-66
2022/11/25 13:10:53;;;;;;;5.17;4.77;;;11.80;64.00;;;;;;4989673;28;20187;-66
2022/11/25 13:13:30;;;;;;;6.80;4.80;;;11.70;98.00;;;;;;4991706;28;20556;-66
2022/11/25 13:15:58;;;;;;;6.80;4.57;;;11.70;99.90;;;;;;4989090;28;20712;-68
2022/11/25 13:18:29;;;;;;;5.43;4.93;;;11.70;99.90;;;;;;4991789;28;20172;-66
2022/11/25 13:21:04;;;;;;;5.00;4.60;;;11.60;99.90;;;;;;4991028;28;20231;-66
2022/11/25 13:23:46;;;;;;;10.03;4.83;;;11.60;99.90;;;;;;5000407;23;20663;-66